sensor_id;sensor_type;location;lat;lon;timestamp;P1;durP1;ratioP1;P2;durP2;ratioP2
53775;SDS011;44276;49.534;6.378;2023-07-29T00:00:57;3.80;;;1.52;;
53775;SDS011;44276;49.534;6.378;2023-07-29T00:03:27;3.63;;;1.95;;
53775;SDS011;44276;49.534;6.378;2023-07-29T00:05:56;4.07;;;2.20;;
53775;SDS011;44276;49.534;6.378;2023-07-29T00:08:24;7.00;;;2.30;;
53775;SDS011;44276;49.534;6.378;2023-07-29T00:10:53;3.47;;;1.98;;
53775;SDS011;44276;49.534;6.378;2023-07-29T00:13:21;3.63;;;2.45;;
53775;SDS011;44276;49.534;6.378;2023-07-29T00:15:49;3.17;;;2.47;;
53775;SDS011;44276;49.534;6.378;2023-07-29T00:18:19;3.88;;;2.08;;
53775;SDS011;44276;49.534;6.378;2023-07-29T00:20:47;3.35;;;2.47;;
53775;SDS011;44276;49.534;6.378;2023-07-29T00:23:16;8.27;;;2.28;;
53775;SDS011;44276;49.534;6.378;2023-07-29T00:25:46;3.70;;;2.25;;
53775;SDS011;44276;49.534;6.378;2023-07-29T00:28:14;5.78;;;2.78;;
53775;SDS011;44276;49.534;6.378;2023-07-29T00:30:45;5.38;;;2.85;;
53775;SDS011;44276;49.534;6.378;2023-07-29T00:33:14;3.22;;;2.13;;
53775;SDS011;44276;49.534;6.378;2023-07-29T00:35:43;3.20;;;1.90;;
53775;SDS011;44276;49.534;6.378;2023-07-29T00:38:12;5.80;;;2.55;;
53775;SDS011;44276;49.534;6.378;2023-07-29T00:40:40;5.53;;;2.53;;
53775;SDS011;44276;49.534;6.378;2023-07-29T00:43:08;5.15;;;2.40;;
53775;SDS011;44276;49.534;6.378;2023-07-29T00:45:36;8.35;;;3.05;;
53775;SDS011;44276;49.534;6.378;2023-07-29T00:48:06;2.97;;;2.28;;
53775;SDS011;44276;49.534;6.378;2023-07-29T00:50:34;3.75;;;2.47;;
53775;SDS011;44276;49.534;6.378;2023-07-29T00:53:04;5.60;;;2.95;;
53775;SDS011;44276;49.534;6.378;2023-07-29T00:55:32;6.38;;;2.35;;
53775;SDS011;44276;49.534;6.378;2023-07-29T00:58:00;3.60;;;2.22;;
53775;SDS011;44276;49.534;6.378;2023-07-29T01:00:28;5.63;;;2.80;;
53775;SDS011;44276;49.534;6.378;2023-07-29T01:02:57;4.65;;;2.72;;
53775;SDS011;44276;49.534;6.378;2023-07-29T01:05:26;4.63;;;2.67;;
53775;SDS011;44276;49.534;6.378;2023-07-29T01:08:06;3.17;;;2.45;;
53775;SDS011;44276;49.534;6.378;2023-07-29T01:10:47;5.93;;;2.40;;
53775;SDS011;44276;49.534;6.378;2023-07-29T01:13:28;5.50;;;3.10;;
53775;SDS011;44276;49.534;6.378;2023-07-29T01:16:04;2.47;;;1.80;;
53775;SDS011;44276;49.534;6.378;2023-07-29T01:18:43;6.35;;;2.38;;
53775;SDS011;44276;49.534;6.378;2023-07-29T01:21:19;4.93;;;2.53;;
53775;SDS011;44276;49.534;6.378;2023-07-29T01:23:53;3.05;;;2.33;;
53775;SDS011;44276;49.534;6.378;2023-07-29T01:26:25;3.60;;;2.03;;
53775;SDS011;44276;49.534;6.378;2023-07-29T01:28:55;3.40;;;1.95;;
53775;SDS011;44276;49.534;6.378;2023-07-29T01:31:27;10.38;;;2.80;;
53775;SDS011;44276;49.534;6.378;2023-07-29T01:34:06;3.42;;;2.00;;
53775;SDS011;44276;49.534;6.378;2023-07-29T01:36:41;7.65;;;2.63;;
53775;SDS011;44276;49.534;6.378;2023-07-29T01:39:14;4.18;;;1.73;;
53775;SDS011;44276;49.534;6.378;2023-07-29T01:41:44;4.45;;;2.10;;
53775;SDS011;44276;49.534;6.378;2023-07-29T01:44:13;1.92;;;1.80;;
53775;SDS011;44276;49.534;6.378;2023-07-29T01:46:43;2.53;;;2.00;;
53775;SDS011;44276;49.534;6.378;2023-07-29T01:49:12;3.35;;;2.08;;
53775;SDS011;44276;49.534;6.378;2023-07-29T01:51:40;8.43;;;2.65;;
53775;SDS011;44276;49.534;6.378;2023-07-29T01:54:08;2.80;;;1.95;;
53775;SDS011;44276;49.534;6.378;2023-07-29T01:56:38;3.38;;;1.67;;
53775;SDS011;44276;49.534;6.378;2023-07-29T01:59:06;3.75;;;2.33;;
53775;SDS011;44276;49.534;6.378;2023-07-29T02:01:34;3.83;;;1.73;;
53775;SDS011;44276;49.534;6.378;2023-07-29T02:04:03;6.47;;;2.20;;
53775;SDS011;44276;49.534;6.378;2023-07-29T02:06:32;3.65;;;1.85;;
53775;SDS011;44276;49.534;6.378;2023-07-29T02:09:00;2.35;;;1.77;;
53775;SDS011;44276;49.534;6.378;2023-07-29T02:11:30;3.08;;;2.05;;
53775;SDS011;44276;49.534;6.378;2023-07-29T02:14:00;3.08;;;1.70;;
53775;SDS011;44276;49.534;6.378;2023-07-29T02:16:28;4.03;;;1.83;;
53775;SDS011;44276;49.534;6.378;2023-07-29T02:18:56;7.40;;;2.17;;
53775;SDS011;44276;49.534;6.378;2023-07-29T02:21:24;5.07;;;1.70;;
53775;SDS011;44276;49.534;6.378;2023-07-29T02:23:53;6.20;;;2.25;;
53775;SDS011;44276;49.534;6.378;2023-07-29T02:26:21;10.88;;;2.80;;
53775;SDS011;44276;49.534;6.378;2023-07-29T02:28:50;2.65;;;1.80;;
53775;SDS011;44276;49.534;6.378;2023-07-29T02:31:20;3.03;;;2.45;;
53775;SDS011;44276;49.534;6.378;2023-07-29T02:33:50;5.32;;;2.13;;
53775;SDS011;44276;49.534;6.378;2023-07-29T02:36:19;4.72;;;2.25;;
53775;SDS011;44276;49.534;6.378;2023-07-29T02:38:47;2.75;;;2.15;;
53775;SDS011;44276;49.534;6.378;2023-07-29T02:41:15;5.95;;;2.25;;
53775;SDS011;44276;49.534;6.378;2023-07-29T02:43:47;10.23;;;3.10;;
53775;SDS011;44276;49.534;6.378;2023-07-29T02:46:17;4.70;;;2.22;;
53775;SDS011;44276;49.534;6.378;2023-07-29T02:48:46;4.10;;;2.15;;
53775;SDS011;44276;49.534;6.378;2023-07-29T02:51:15;5.88;;;2.95;;
53775;SDS011;44276;49.534;6.378;2023-07-29T02:53:43;3.50;;;2.10;;
53775;SDS011;44276;49.534;6.378;2023-07-29T02:56:11;2.53;;;1.88;;
53775;SDS011;44276;49.534;6.378;2023-07-29T02:58:39;6.20;;;2.42;;
53775;SDS011;44276;49.534;6.378;2023-07-29T03:01:07;4.88;;;1.98;;
53775;SDS011;44276;49.534;6.378;2023-07-29T03:03:36;4.65;;;2.92;;
53775;SDS011;44276;49.534;6.378;2023-07-29T03:06:06;4.75;;;2.22;;
53775;SDS011;44276;49.534;6.378;2023-07-29T03:08:36;3.05;;;1.88;;
53775;SDS011;44276;49.534;6.378;2023-07-29T03:11:05;3.97;;;2.20;;
53775;SDS011;44276;49.534;6.378;2023-07-29T03:13:34;2.83;;;2.00;;
53775;SDS011;44276;49.534;6.378;2023-07-29T03:16:06;3.08;;;2.00;;
53775;SDS011;44276;49.534;6.378;2023-07-29T03:18:35;2.65;;;2.13;;
53775;SDS011;44276;49.534;6.378;2023-07-29T03:21:05;2.45;;;1.88;;
53775;SDS011;44276;49.534;6.378;2023-07-29T03:23:34;2.55;;;2.10;;
53775;SDS011;44276;49.534;6.378;2023-07-29T03:26:03;7.57;;;2.08;;
53775;SDS011;44276;49.534;6.378;2023-07-29T03:28:37;2.53;;;2.00;;
53775;SDS011;44276;49.534;6.378;2023-07-29T03:31:08;3.60;;;2.45;;
53775;SDS011;44276;49.534;6.378;2023-07-29T03:33:37;4.57;;;2.38;;
53775;SDS011;44276;49.534;6.378;2023-07-29T03:36:07;5.32;;;2.42;;
53775;SDS011;44276;49.534;6.378;2023-07-29T03:38:35;8.63;;;2.60;;
53775;SDS011;44276;49.534;6.378;2023-07-29T03:41:07;4.22;;;0.77;;
53775;SDS011;44276;49.534;6.378;2023-07-29T03:43:36;2.47;;;0.70;;
53775;SDS011;44276;49.534;6.378;2023-07-29T03:46:04;0.40;;;0.30;;
53775;SDS011;44276;49.534;6.378;2023-07-29T03:48:37;0.98;;;0.22;;
53775;SDS011;44276;49.534;6.378;2023-07-29T03:51:06;1.88;;;0.82;;
53775;SDS011;44276;49.534;6.378;2023-07-29T03:53:34;30.38;;;0.82;;
53775;SDS011;44276;49.534;6.378;2023-07-29T03:56:03;3.58;;;0.60;;
53775;SDS011;44276;49.534;6.378;2023-07-29T03:58:31;3.47;;;0.63;;
53775;SDS011;44276;49.534;6.378;2023-07-29T04:01:00;4.80;;;0.82;;
53775;SDS011;44276;49.534;6.378;2023-07-29T04:03:28;2.20;;;0.90;;
53775;SDS011;44276;49.534;6.378;2023-07-29T04:05:56;2.88;;;0.60;;
53775;SDS011;44276;49.534;6.378;2023-07-29T04:08:26;10.13;;;2.00;;
53775;SDS011;44276;49.534;6.378;2023-07-29T04:10:54;2.00;;;0.77;;
53775;SDS011;44276;49.534;6.378;2023-07-29T04:13:23;1.40;;;0.57;;
53775;SDS011;44276;49.534;6.378;2023-07-29T04:15:51;1.10;;;0.63;;
53775;SDS011;44276;49.534;6.378;2023-07-29T04:18:19;2.22;;;0.77;;
53775;SDS011;44276;49.534;6.378;2023-07-29T04:20:48;2.97;;;0.60;;
53775;SDS011;44276;49.534;6.378;2023-07-29T04:23:16;1.35;;;0.60;;
53775;SDS011;44276;49.534;6.378;2023-07-29T04:25:45;2.40;;;1.15;;
53775;SDS011;44276;49.534;6.378;2023-07-29T04:28:13;1.42;;;0.60;;
53775;SDS011;44276;49.534;6.378;2023-07-29T04:30:41;2.30;;;0.90;;
53775;SDS011;44276;49.534;6.378;2023-07-29T04:33:10;2.70;;;0.95;;
53775;SDS011;44276;49.534;6.378;2023-07-29T04:35:38;5.45;;;1.27;;
53775;SDS011;44276;49.534;6.378;2023-07-29T04:38:06;4.72;;;1.45;;
53775;SDS011;44276;49.534;6.378;2023-07-29T04:40:34;2.95;;;1.20;;
53775;SDS011;44276;49.534;6.378;2023-07-29T04:43:04;5.38;;;1.27;;
53775;SDS011;44276;49.534;6.378;2023-07-29T04:45:32;3.60;;;1.20;;
53775;SDS011;44276;49.534;6.378;2023-07-29T04:48:00;6.75;;;1.55;;
53775;SDS011;44276;49.534;6.378;2023-07-29T04:50:28;4.53;;;1.23;;
53775;SDS011;44276;49.534;6.378;2023-07-29T04:52:57;2.60;;;1.30;;
53775;SDS011;44276;49.534;6.378;2023-07-29T04:55:25;7.72;;;1.88;;
53775;SDS011;44276;49.534;6.378;2023-07-29T04:57:54;23.15;;;3.83;;
53775;SDS011;44276;49.534;6.378;2023-07-29T05:00:24;3.47;;;1.48;;
53775;SDS011;44276;49.534;6.378;2023-07-29T05:02:52;8.95;;;1.77;;
53775;SDS011;44276;49.534;6.378;2023-07-29T05:05:20;3.17;;;1.60;;
53775;SDS011;44276;49.534;6.378;2023-07-29T05:07:48;9.45;;;1.80;;
53775;SDS011;44276;49.534;6.378;2023-07-29T05:10:16;4.50;;;2.28;;
53775;SDS011;44276;49.534;6.378;2023-07-29T05:12:45;5.18;;;2.20;;
53775;SDS011;44276;49.534;6.378;2023-07-29T05:15:13;8.82;;;2.00;;
53775;SDS011;44276;49.534;6.378;2023-07-29T05:17:43;4.40;;;2.80;;
53775;SDS011;44276;49.534;6.378;2023-07-29T05:20:11;9.57;;;2.40;;
53775;SDS011;44276;49.534;6.378;2023-07-29T05:22:39;6.95;;;2.30;;
53775;SDS011;44276;49.534;6.378;2023-07-29T05:25:08;7.97;;;2.25;;
53775;SDS011;44276;49.534;6.378;2023-07-29T05:27:36;10.77;;;2.33;;
53775;SDS011;44276;49.534;6.378;2023-07-29T05:30:05;6.90;;;3.00;;
53775;SDS011;44276;49.534;6.378;2023-07-29T05:32:35;4.50;;;2.33;;
53775;SDS011;44276;49.534;6.378;2023-07-29T05:35:05;10.23;;;2.95;;
53775;SDS011;44276;49.534;6.378;2023-07-29T05:37:34;6.88;;;2.83;;
53775;SDS011;44276;49.534;6.378;2023-07-29T05:40:05;9.05;;;2.60;;
53775;SDS011;44276;49.534;6.378;2023-07-29T05:42:35;7.07;;;3.13;;
53775;SDS011;44276;49.534;6.378;2023-07-29T05:45:03;10.70;;;2.67;;
53775;SDS011;44276;49.534;6.378;2023-07-29T05:47:33;4.38;;;2.83;;
53775;SDS011;44276;49.534;6.378;2023-07-29T05:50:01;11.13;;;2.67;;
53775;SDS011;44276;49.534;6.378;2023-07-29T05:52:32;7.65;;;3.45;;
53775;SDS011;44276;49.534;6.378;2023-07-29T05:55:01;5.35;;;2.67;;
53775;SDS011;44276;49.534;6.378;2023-07-29T05:57:29;6.20;;;2.75;;
53775;SDS011;44276;49.534;6.378;2023-07-29T05:59:57;5.05;;;2.85;;
53775;SDS011;44276;49.534;6.378;2023-07-29T06:02:25;6.38;;;2.08;;
53775;SDS011;44276;49.534;6.378;2023-07-29T06:04:53;6.35;;;2.67;;
53775;SDS011;44276;49.534;6.378;2023-07-29T06:07:21;7.93;;;3.08;;
53775;SDS011;44276;49.534;6.378;2023-07-29T06:09:51;4.90;;;2.60;;
53775;SDS011;44276;49.534;6.378;2023-07-29T06:12:21;6.40;;;2.35;;
53775;SDS011;44276;49.534;6.378;2023-07-29T06:14:49;4.93;;;2.35;;
53775;SDS011;44276;49.534;6.378;2023-07-29T06:17:17;4.55;;;2.30;;
53775;SDS011;44276;49.534;6.378;2023-07-29T06:19:46;5.85;;;2.60;;
53775;SDS011;44276;49.534;6.378;2023-07-29T06:22:14;6.05;;;2.58;;
53775;SDS011;44276;49.534;6.378;2023-07-29T06:24:43;3.60;;;2.35;;
53775;SDS011;44276;49.534;6.378;2023-07-29T06:27:12;7.38;;;2.55;;
53775;SDS011;44276;49.534;6.378;2023-07-29T06:29:40;4.55;;;2.25;;
53775;SDS011;44276;49.534;6.378;2023-07-29T06:32:09;4.53;;;2.58;;
53775;SDS011;44276;49.534;6.378;2023-07-29T06:34:37;3.70;;;2.63;;
53775;SDS011;44276;49.534;6.378;2023-07-29T06:37:05;2.15;;;1.45;;
53775;SDS011;44276;49.534;6.378;2023-07-29T06:39:34;3.03;;;1.60;;
53775;SDS011;44276;49.534;6.378;2023-07-29T06:42:02;2.10;;;1.25;;
53775;SDS011;44276;49.534;6.378;2023-07-29T06:44:33;1.27;;;1.00;;
53775;SDS011;44276;49.534;6.378;2023-07-29T06:47:01;1.77;;;0.70;;
53775;SDS011;44276;49.534;6.378;2023-07-29T06:49:30;3.53;;;0.75;;
53775;SDS011;44276;49.534;6.378;2023-07-29T06:51:58;0.68;;;0.50;;
53775;SDS011;44276;49.534;6.378;2023-07-29T06:54:33;1.58;;;0.65;;
53775;SDS011;44276;49.534;6.378;2023-07-29T06:57:16;1.27;;;0.73;;
53775;SDS011;44276;49.534;6.378;2023-07-29T06:59:47;1.58;;;1.15;;
53775;SDS011;44276;49.534;6.378;2023-07-29T07:02:17;4.20;;;0.90;;
53775;SDS011;44276;49.534;6.378;2023-07-29T07:04:48;1.58;;;0.57;;
53775;SDS011;44276;49.534;6.378;2023-07-29T07:07:17;2.95;;;1.17;;
53775;SDS011;44276;49.534;6.378;2023-07-29T07:09:45;2.38;;;1.10;;
53775;SDS011;44276;49.534;6.378;2023-07-29T07:12:13;3.13;;;1.00;;
53775;SDS011;44276;49.534;6.378;2023-07-29T07:14:42;1.95;;;0.80;;
53775;SDS011;44276;49.534;6.378;2023-07-29T07:17:11;2.40;;;0.80;;
53775;SDS011;44276;49.534;6.378;2023-07-29T07:19:40;3.78;;;0.73;;
53775;SDS011;44276;49.534;6.378;2023-07-29T07:22:09;0.85;;;0.57;;
53775;SDS011;44276;49.534;6.378;2023-07-29T07:24:40;1.33;;;0.75;;
53775;SDS011;44276;49.534;6.378;2023-07-29T07:27:10;1.73;;;0.68;;
53775;SDS011;44276;49.534;6.378;2023-07-29T07:29:39;1.95;;;0.70;;
53775;SDS011;44276;49.534;6.378;2023-07-29T07:32:08;1.42;;;0.88;;
53775;SDS011;44276;49.534;6.378;2023-07-29T07:34:38;2.03;;;0.52;;
53775;SDS011;44276;49.534;6.378;2023-07-29T07:37:07;4.05;;;0.93;;
53775;SDS011;44276;49.534;6.378;2023-07-29T07:39:35;1.05;;;0.77;;
53775;SDS011;44276;49.534;6.378;2023-07-29T07:42:04;1.23;;;0.82;;
53775;SDS011;44276;49.534;6.378;2023-07-29T07:44:35;3.42;;;0.57;;
53775;SDS011;44276;49.534;6.378;2023-07-29T07:47:03;1.17;;;0.80;;
53775;SDS011;44276;49.534;6.378;2023-07-29T07:49:32;1.88;;;0.77;;
53775;SDS011;44276;49.534;6.378;2023-07-29T07:52:14;3.17;;;0.55;;
53775;SDS011;44276;49.534;6.378;2023-07-29T07:54:51;1.08;;;0.50;;
53775;SDS011;44276;49.534;6.378;2023-07-29T07:57:22;1.75;;;0.85;;
53775;SDS011;44276;49.534;6.378;2023-07-29T07:59:50;1.17;;;0.60;;
53775;SDS011;44276;49.534;6.378;2023-07-29T08:02:21;6.60;;;0.80;;
53775;SDS011;44276;49.534;6.378;2023-07-29T08:04:49;1.63;;;0.70;;
53775;SDS011;44276;49.534;6.378;2023-07-29T08:07:19;1.27;;;0.93;;
53775;SDS011;44276;49.534;6.378;2023-07-29T08:09:50;1.75;;;0.70;;
53775;SDS011;44276;49.534;6.378;2023-07-29T08:12:20;4.15;;;1.15;;
53775;SDS011;44276;49.534;6.378;2023-07-29T08:14:50;3.28;;;0.63;;
53775;SDS011;44276;49.534;6.378;2023-07-29T08:17:19;0.93;;;0.73;;
53775;SDS011;44276;49.534;6.378;2023-07-29T08:19:47;4.43;;;0.70;;
53775;SDS011;44276;49.534;6.378;2023-07-29T08:22:18;0.60;;;0.32;;
53775;SDS011;44276;49.534;6.378;2023-07-29T08:24:47;2.92;;;0.60;;
53775;SDS011;44276;49.534;6.378;2023-07-29T08:27:16;2.22;;;0.60;;
53775;SDS011;44276;49.534;6.378;2023-07-29T08:29:45;2.53;;;0.35;;
53775;SDS011;44276;49.534;6.378;2023-07-29T08:32:13;0.63;;;0.40;;
53775;SDS011;44276;49.534;6.378;2023-07-29T08:34:42;2.42;;;0.40;;
53775;SDS011;44276;49.534;6.378;2023-07-29T08:37:19;1.02;;;0.38;;
53775;SDS011;44276;49.534;6.378;2023-07-29T08:39:49;1.17;;;0.40;;
53775;SDS011;44276;49.534;6.378;2023-07-29T08:42:20;1.15;;;0.40;;
53775;SDS011;44276;49.534;6.378;2023-07-29T08:44:55;3.97;;;0.60;;
53775;SDS011;44276;49.534;6.378;2023-07-29T08:47:26;1.13;;;0.43;;
53775;SDS011;44276;49.534;6.378;2023-07-29T08:49:54;1.02;;;0.70;;
53775;SDS011;44276;49.534;6.378;2023-07-29T08:52:25;0.65;;;0.50;;
53775;SDS011;44276;49.534;6.378;2023-07-29T08:54:54;1.45;;;0.45;;
53775;SDS011;44276;49.534;6.378;2023-07-29T08:57:23;0.50;;;0.50;;
53775;SDS011;44276;49.534;6.378;2023-07-29T08:59:53;2.58;;;0.63;;
53775;SDS011;44276;49.534;6.378;2023-07-29T09:02:23;2.28;;;0.65;;
53775;SDS011;44276;49.534;6.378;2023-07-29T09:04:52;1.13;;;0.82;;
53775;SDS011;44276;49.534;6.378;2023-07-29T09:07:28;0.80;;;0.32;;
53775;SDS011;44276;49.534;6.378;2023-07-29T09:09:58;0.93;;;0.40;;
53775;SDS011;44276;49.534;6.378;2023-07-29T09:12:27;1.98;;;0.65;;
53775;SDS011;44276;49.534;6.378;2023-07-29T09:14:55;3.45;;;0.63;;
53775;SDS011;44276;49.534;6.378;2023-07-29T09:17:23;2.78;;;0.55;;
53775;SDS011;44276;49.534;6.378;2023-07-29T09:19:52;0.80;;;0.50;;
53775;SDS011;44276;49.534;6.378;2023-07-29T09:22:21;0.55;;;0.40;;
53775;SDS011;44276;49.534;6.378;2023-07-29T09:24:51;0.93;;;0.45;;
53775;SDS011;44276;49.534;6.378;2023-07-29T09:27:23;0.90;;;0.43;;
53775;SDS011;44276;49.534;6.378;2023-07-29T09:29:53;3.40;;;0.45;;
53775;SDS011;44276;49.534;6.378;2023-07-29T09:32:22;0.73;;;0.47;;
53775;SDS011;44276;49.534;6.378;2023-07-29T09:34:52;0.90;;;0.60;;
53775;SDS011;44276;49.534;6.378;2023-07-29T09:37:21;1.77;;;0.52;;
53775;SDS011;44276;49.534;6.378;2023-07-29T09:39:52;1.88;;;0.47;;
53775;SDS011;44276;49.534;6.378;2023-07-29T09:42:20;4.97;;;0.60;;
53775;SDS011;44276;49.534;6.378;2023-07-29T09:44:50;0.60;;;0.60;;
53775;SDS011;44276;49.534;6.378;2023-07-29T09:47:20;0.82;;;0.40;;
53775;SDS011;44276;49.534;6.378;2023-07-29T09:49:49;0.70;;;0.60;;
53775;SDS011;44276;49.534;6.378;2023-07-29T09:52:18;0.85;;;0.45;;
53775;SDS011;44276;49.534;6.378;2023-07-29T09:54:51;0.57;;;0.45;;
53775;SDS011;44276;49.534;6.378;2023-07-29T09:57:19;2.20;;;0.45;;
53775;SDS011;44276;49.534;6.378;2023-07-29T09:59:54;1.50;;;0.98;;
53775;SDS011;44276;49.534;6.378;2023-07-29T10:02:24;0.90;;;0.50;;
53775;SDS011;44276;49.534;6.378;2023-07-29T10:04:55;1.13;;;0.50;;
53775;SDS011;44276;49.534;6.378;2023-07-29T10:07:25;0.93;;;0.38;;
53775;SDS011;44276;49.534;6.378;2023-07-29T10:09:55;0.55;;;0.40;;
53775;SDS011;44276;49.534;6.378;2023-07-29T10:12:26;1.10;;;0.30;;
53775;SDS011;44276;49.534;6.378;2023-07-29T10:14:56;0.70;;;0.40;;
53775;SDS011;44276;49.534;6.378;2023-07-29T10:17:28;1.05;;;0.30;;
53775;SDS011;44276;49.534;6.378;2023-07-29T10:19:57;0.38;;;0.30;;
53775;SDS011;44276;49.534;6.378;2023-07-29T10:22:28;0.90;;;0.57;;
53775;SDS011;44276;49.534;6.378;2023-07-29T10:25:03;2.15;;;0.65;;
53775;SDS011;44276;49.534;6.378;2023-07-29T10:27:38;1.92;;;0.50;;
53775;SDS011;44276;49.534;6.378;2023-07-29T10:30:14;2.25;;;0.35;;
53775;SDS011;44276;49.534;6.378;2023-07-29T10:32:43;0.75;;;0.40;;
53775;SDS011;44276;49.534;6.378;2023-07-29T10:35:13;0.47;;;0.35;;
53775;SDS011;44276;49.534;6.378;2023-07-29T10:37:42;0.47;;;0.40;;
53775;SDS011;44276;49.534;6.378;2023-07-29T10:40:13;0.50;;;0.40;;
53775;SDS011;44276;49.534;6.378;2023-07-29T10:42:58;0.85;;;0.50;;
53775;SDS011;44276;49.534;6.378;2023-07-29T10:45:36;1.88;;;0.40;;
53775;SDS011;44276;49.534;6.378;2023-07-29T10:48:06;2.65;;;0.50;;
53775;SDS011;44276;49.534;6.378;2023-07-29T10:50:38;1.13;;;0.50;;
53775;SDS011;44276;49.534;6.378;2023-07-29T10:53:06;0.82;;;0.55;;
53775;SDS011;44276;49.534;6.378;2023-07-29T10:55:36;4.13;;;0.88;;
53775;SDS011;44276;49.534;6.378;2023-07-29T10:58:05;0.52;;;0.40;;
53775;SDS011;44276;49.534;6.378;2023-07-29T11:00:40;0.77;;;0.38;;
53775;SDS011;44276;49.534;6.378;2023-07-29T11:03:11;0.75;;;0.40;;
53775;SDS011;44276;49.534;6.378;2023-07-29T11:05:42;0.95;;;0.60;;
53775;SDS011;44276;49.534;6.378;2023-07-29T11:08:17;3.78;;;0.77;;
53775;SDS011;44276;49.534;6.378;2023-07-29T11:10:59;1.00;;;0.52;;
53775;SDS011;44276;49.534;6.378;2023-07-29T11:13:32;1.35;;;0.70;;
53775;SDS011;44276;49.534;6.378;2023-07-29T11:16:04;0.57;;;0.47;;
53775;SDS011;44276;49.534;6.378;2023-07-29T11:18:35;0.40;;;0.30;;
53775;SDS011;44276;49.534;6.378;2023-07-29T11:21:03;1.25;;;0.43;;
53775;SDS011;44276;49.534;6.378;2023-07-29T11:23:32;0.80;;;0.40;;
53775;SDS011;44276;49.534;6.378;2023-07-29T11:26:04;2.55;;;0.70;;
53775;SDS011;44276;49.534;6.378;2023-07-29T11:28:37;0.30;;;0.30;;
53775;SDS011;44276;49.534;6.378;2023-07-29T11:31:07;3.90;;;1.13;;
53775;SDS011;44276;49.534;6.378;2023-07-29T11:33:38;0.85;;;0.50;;
53775;SDS011;44276;49.534;6.378;2023-07-29T11:36:16;1.35;;;0.45;;
53775;SDS011;44276;49.534;6.378;2023-07-29T11:38:46;0.32;;;0.30;;
53775;SDS011;44276;49.534;6.378;2023-07-29T11:41:18;0.43;;;0.43;;
53775;SDS011;44276;49.534;6.378;2023-07-29T11:43:48;1.33;;;0.57;;
53775;SDS011;44276;49.534;6.378;2023-07-29T11:46:20;0.80;;;0.60;;
53775;SDS011;44276;49.534;6.378;2023-07-29T11:48:50;3.35;;;0.40;;
53775;SDS011;44276;49.534;6.378;2023-07-29T11:51:18;2.13;;;0.40;;
53775;SDS011;44276;49.534;6.378;2023-07-29T11:53:46;0.63;;;0.50;;
53775;SDS011;44276;49.534;6.378;2023-07-29T11:56:15;0.90;;;0.50;;
53775;SDS011;44276;49.534;6.378;2023-07-29T11:58:44;1.10;;;0.40;;
53775;SDS011;44276;49.534;6.378;2023-07-29T12:01:13;2.28;;;0.40;;
53775;SDS011;44276;49.534;6.378;2023-07-29T12:03:41;1.08;;;0.55;;
53775;SDS011;44276;49.534;6.378;2023-07-29T12:06:11;3.28;;;0.45;;
53775;SDS011;44276;49.534;6.378;2023-07-29T12:08:39;2.40;;;0.50;;
53775;SDS011;44276;49.534;6.378;2023-07-29T12:11:09;3.63;;;0.90;;
53775;SDS011;44276;49.534;6.378;2023-07-29T12:13:39;0.60;;;0.35;;
53775;SDS011;44276;49.534;6.378;2023-07-29T12:16:09;0.90;;;0.60;;
53775;SDS011;44276;49.534;6.378;2023-07-29T12:18:43;2.30;;;0.50;;
53775;SDS011;44276;49.534;6.378;2023-07-29T12:21:13;1.33;;;0.65;;
53775;SDS011;44276;49.534;6.378;2023-07-29T12:23:42;1.35;;;0.60;;
53775;SDS011;44276;49.534;6.378;2023-07-29T12:26:10;0.73;;;0.40;;
53775;SDS011;44276;49.534;6.378;2023-07-29T12:28:40;1.90;;;0.50;;
53775;SDS011;44276;49.534;6.378;2023-07-29T12:31:13;0.80;;;0.60;;
53775;SDS011;44276;49.534;6.378;2023-07-29T12:33:41;0.75;;;0.52;;
53775;SDS011;44276;49.534;6.378;2023-07-29T12:36:09;2.42;;;0.70;;
53775;SDS011;44276;49.534;6.378;2023-07-29T12:38:38;0.60;;;0.52;;
53775;SDS011;44276;49.534;6.378;2023-07-29T12:41:06;2.15;;;1.27;;
53775;SDS011;44276;49.534;6.378;2023-07-29T12:43:34;2.35;;;0.60;;
53775;SDS011;44276;49.534;6.378;2023-07-29T12:46:04;2.03;;;0.45;;
53775;SDS011;44276;49.534;6.378;2023-07-29T12:48:32;1.70;;;0.50;;
53775;SDS011;44276;49.534;6.378;2023-07-29T12:51:00;1.95;;;0.73;;
53775;SDS011;44276;49.534;6.378;2023-07-29T12:53:28;0.80;;;0.55;;
53775;SDS011;44276;49.534;6.378;2023-07-29T12:55:56;0.60;;;0.43;;
53775;SDS011;44276;49.534;6.378;2023-07-29T12:58:24;1.42;;;0.70;;
53775;SDS011;44276;49.534;6.378;2023-07-29T13:00:52;1.38;;;0.65;;
53775;SDS011;44276;49.534;6.378;2023-07-29T13:03:22;2.20;;;0.57;;
53775;SDS011;44276;49.534;6.378;2023-07-29T13:05:51;1.38;;;0.50;;
53775;SDS011;44276;49.534;6.378;2023-07-29T13:08:19;1.02;;;0.85;;
53775;SDS011;44276;49.534;6.378;2023-07-29T13:10:49;0.50;;;0.40;;
53775;SDS011;44276;49.534;6.378;2023-07-29T13:13:17;0.50;;;0.50;;
53775;SDS011;44276;49.534;6.378;2023-07-29T13:15:47;0.65;;;0.40;;
53775;SDS011;44276;49.534;6.378;2023-07-29T13:18:15;0.90;;;0.55;;
53775;SDS011;44276;49.534;6.378;2023-07-29T13:20:45;1.20;;;1.00;;
53775;SDS011;44276;49.534;6.378;2023-07-29T13:23:13;1.48;;;0.50;;
53775;SDS011;44276;49.534;6.378;2023-07-29T13:25:41;0.50;;;0.38;;
53775;SDS011;44276;49.534;6.378;2023-07-29T13:28:10;0.57;;;0.30;;
53775;SDS011;44276;49.534;6.378;2023-07-29T13:30:40;0.50;;;0.40;;
53775;SDS011;44276;49.534;6.378;2023-07-29T13:33:08;0.80;;;0.50;;
53775;SDS011;44276;49.534;6.378;2023-07-29T13:35:36;2.75;;;0.60;;
53775;SDS011;44276;49.534;6.378;2023-07-29T13:38:06;0.55;;;0.40;;
53775;SDS011;44276;49.534;6.378;2023-07-29T13:40:34;1.20;;;0.70;;
53775;SDS011;44276;49.534;6.378;2023-07-29T13:43:03;0.32;;;0.32;;
53775;SDS011;44276;49.534;6.378;2023-07-29T13:45:33;1.08;;;0.40;;
53775;SDS011;44276;49.534;6.378;2023-07-29T13:48:02;0.88;;;0.60;;
53775;SDS011;44276;49.534;6.378;2023-07-29T13:50:31;0.68;;;0.52;;
53775;SDS011;44276;49.534;6.378;2023-07-29T13:52:59;0.60;;;0.60;;
53775;SDS011;44276;49.534;6.378;2023-07-29T13:55:29;1.77;;;0.90;;
53775;SDS011;44276;49.534;6.378;2023-07-29T13:57:57;2.58;;;0.98;;
53775;SDS011;44276;49.534;6.378;2023-07-29T14:00:25;1.33;;;0.80;;
53775;SDS011;44276;49.534;6.378;2023-07-29T14:02:53;2.05;;;0.60;;
53775;SDS011;44276;49.534;6.378;2023-07-29T14:05:21;1.55;;;0.82;;
53775;SDS011;44276;49.534;6.378;2023-07-29T14:07:50;0.95;;;0.60;;
53775;SDS011;44276;49.534;6.378;2023-07-29T14:10:18;1.35;;;0.82;;
53775;SDS011;44276;49.534;6.378;2023-07-29T14:12:48;1.33;;;0.68;;
53775;SDS011;44276;49.534;6.378;2023-07-29T14:15:16;0.80;;;0.60;;
53775;SDS011;44276;49.534;6.378;2023-07-29T14:17:44;2.22;;;0.75;;
53775;SDS011;44276;49.534;6.378;2023-07-29T14:20:13;1.17;;;0.90;;
53775;SDS011;44276;49.534;6.378;2023-07-29T14:22:42;1.38;;;0.90;;
53775;SDS011;44276;49.534;6.378;2023-07-29T14:25:10;1.40;;;0.90;;
53775;SDS011;44276;49.534;6.378;2023-07-29T14:27:39;1.25;;;0.90;;
53775;SDS011;44276;49.534;6.378;2023-07-29T14:30:09;2.72;;;0.77;;
53775;SDS011;44276;49.534;6.378;2023-07-29T14:32:38;1.15;;;0.55;;
53775;SDS011;44276;49.534;6.378;2023-07-29T14:35:07;1.75;;;0.73;;
53775;SDS011;44276;49.534;6.378;2023-07-29T14:37:35;1.63;;;1.05;;
53775;SDS011;44276;49.534;6.378;2023-07-29T14:40:04;1.42;;;0.88;;
53775;SDS011;44276;49.534;6.378;2023-07-29T14:42:34;0.88;;;0.70;;
53775;SDS011;44276;49.534;6.378;2023-07-29T14:45:02;2.13;;;0.63;;
53775;SDS011;44276;49.534;6.378;2023-07-29T14:47:32;0.88;;;0.60;;
53775;SDS011;44276;49.534;6.378;2023-07-29T14:50:01;3.40;;;1.27;;
53775;SDS011;44276;49.534;6.378;2023-07-29T14:52:30;4.00;;;0.80;;
53775;SDS011;44276;49.534;6.378;2023-07-29T14:54:58;2.20;;;1.25;;
53775;SDS011;44276;49.534;6.378;2023-07-29T14:57:26;5.97;;;0.60;;
53775;SDS011;44276;49.534;6.378;2023-07-29T14:59:54;1.48;;;0.60;;
53775;SDS011;44276;49.534;6.378;2023-07-29T15:02:22;1.10;;;0.70;;